Ocoee 1 Observed Data For Previous 48 Hours

Caption
Day and Hour Reservoir Elevation (behind dam)* Tailwater Elevation (below dam)* Average Hourly Discharge*
3/18/2019 2 AM EDT 827.85 720.03 5,046
3/18/2019 3 AM EDT 827.84 720.00 5,039
3/18/2019 4 AM EDT 827.81 720.00 5,027
3/18/2019 5 AM EDT 827.79 719.99 5,014
3/18/2019 6 AM EDT 827.77 719.97 4,994
3/18/2019 7 AM EDT 827.74 719.96 4,988
3/18/2019 8 AM EDT 827.72 719.96 4,980
3/18/2019 9 AM EDT 827.69 719.94 4,944
3/18/2019 10 AM EDT 827.67 719.93 4,930
3/18/2019 11 AM EDT 827.65 719.91 4,917
3/18/2019 12 PM EDT 827.62 719.91 4,912
3/18/2019 1 PM EDT 827.58 719.81 4,880
3/18/2019 2 PM EDT 827.57 719.09 4,858
3/18/2019 3 PM EDT 827.58 719.07 4,087
3/18/2019 4 PM EDT 827.57 719.06 3,935
3/18/2019 5 PM EDT 827.57 719.07 3,940
3/18/2019 6 PM EDT 827.58 719.05 3,943
3/18/2019 7 PM EDT 827.58 719.07 3,938
3/18/2019 8 PM EDT 827.59 719.07 3,954
3/18/2019 9 PM EDT 827.60 719.06 3,941
3/18/2019 10 PM EDT 827.60 719.05 3,940
3/18/2019 11 PM EDT 827.60 719.06 3,938
3/19/2019 12 AM EDT 827.62 719.05 3,937
3/19/2019 1 AM EDT 827.63 719.08 3,948
3/19/2019 2 AM EDT 827.64 719.08 3,954
3/19/2019 3 AM EDT 827.63 719.07 3,952
3/19/2019 4 AM EDT 827.63 719.08 3,958
3/19/2019 5 AM EDT 827.64 719.05 3,946
3/19/2019 6 AM EDT 827.64 719.06 3,944
3/19/2019 7 AM EDT 827.65 719.07 3,950
3/19/2019 8 AM EDT 827.65 719.07 3,958
3/19/2019 9 AM EDT 827.66 719.04 3,946
3/19/2019 10 AM EDT 827.66 719.06 3,946
3/19/2019 11 AM EDT 827.66 719.07 3,951
3/19/2019 12 PM EDT 827.66 719.06 3,951
3/19/2019 1 PM EDT 827.66 719.08 3,975
3/19/2019 2 PM EDT 827.66 719.09 3,978
3/19/2019 3 PM EDT 827.67 719.08 3,977
3/19/2019 4 PM EDT 827.65 719.09 3,978
3/19/2019 5 PM EDT 827.63 719.08 3,978
3/19/2019 6 PM EDT 827.60 719.10 3,977
3/19/2019 7 PM EDT 827.57 719.09 3,963
3/19/2019 8 PM EDT 827.54 719.07 3,966
3/19/2019 9 PM EDT 827.52 719.05 3,954
3/19/2019 10 PM EDT 827.49 719.06 3,947
3/19/2019 11 PM EDT 827.47 719.04 3,940
3/20/2019 12 AM EDT 827.44 719.04 3,942
3/20/2019 1 AM EDT 827.46 719.05 3,935
3/20/2019 2 AM EDT 827.55 718.15 3,146
3/20/2019 3 AM EDT 827.64 718.16 3,147
3/20/2019 4 AM EDT 827.72 718.17 3,165
3/20/2019 5 AM EDT 827.79 718.27 3,184
3/20/2019 6 AM EDT 827.83 718.97 3,862
3/20/2019 7 AM EDT 827.85 718.97 3,858
3/20/2019 8 AM EDT 827.87 718.97 3,867

Elevations are in feet above sea level. Discharges are in cubic feet per second and are reported at the end of the hour.